createdAt,value
2023-03-05T00:02:25.169Z,17.98
2023-03-05T00:04:58.111Z,17.08
2023-03-05T00:07:31.206Z,17.15
2023-03-05T00:10:00.906Z,17.00
2023-03-05T00:15:23.348Z,16.30
2023-03-05T00:17:50.356Z,17.40
2023-03-05T00:20:24.262Z,17.55
2023-03-05T00:22:51.272Z,16.73
2023-03-05T00:25:25.202Z,19.10
2023-03-05T00:28:05.234Z,16.63
2023-03-05T00:30:32.527Z,17.80
2023-03-05T00:33:06.166Z,17.90
2023-03-05T00:35:39.613Z,18.45
2023-03-05T00:38:13.209Z,19.67
2023-03-05T00:40:41.500Z,17.48
2023-03-05T00:43:15.242Z,17.85
2023-03-05T00:45:42.298Z,18.52
2023-03-05T00:48:16.236Z,17.95
2023-03-05T00:50:43.275Z,18.23
2023-03-05T00:53:17.177Z,17.58
2023-03-05T00:55:44.131Z,18.40
2023-03-05T00:58:17.166Z,17.55
2023-03-05T01:00:44.258Z,18.13
2023-03-05T01:09:59.474Z,18.67
2023-03-05T01:16:34.917Z,17.55
2023-03-05T01:19:08.217Z,17.77
2023-03-05T01:24:25.220Z,19.55
2023-03-05T01:26:59.270Z,18.52
2023-03-05T01:29:26.272Z,19.73
2023-03-05T01:32:00.315Z,19.42
2023-03-05T01:34:34.217Z,18.75
2023-03-05T01:40:21.207Z,18.88
2023-03-05T01:42:56.181Z,18.05
2023-03-05T01:45:23.280Z,18.27
2023-03-05T01:47:57.226Z,18.15
2023-03-05T01:50:25.037Z,18.13
2023-03-05T01:53:14.229Z,15.85
2023-03-05T01:55:41.284Z,15.63
2023-03-05T01:58:55.678Z,14.15
2023-03-05T02:01:22.762Z,14.38
2023-03-05T02:03:49.911Z,14.73
2023-03-05T02:06:23.202Z,15.15
2023-03-05T02:09:48.308Z,14.27
2023-03-05T02:12:15.289Z,14.65
2023-03-05T02:14:52.181Z,13.77
2023-03-05T02:18:00.212Z,14.07
2023-03-05T02:21:03.491Z,14.32
2023-03-05T02:23:45.964Z,14.88
2023-03-05T02:26:19.298Z,15.07
2023-03-05T02:28:58.758Z,14.10
2023-03-05T02:31:32.290Z,15.18
2023-03-05T02:33:59.358Z,15.68
2023-03-05T02:36:33.248Z,14.75
2023-03-05T02:39:09.288Z,15.75
2023-03-05T02:42:43.363Z,15.65
2023-03-05T02:45:24.931Z,14.48
2023-03-05T02:55:00.299Z,14.95
2023-03-05T02:57:51.969Z,14.20
2023-03-05T03:00:37.320Z,15.10
2023-03-05T03:03:19.846Z,13.80
2023-03-05T03:05:53.250Z,14.02
2023-03-05T03:08:20.246Z,13.52
2023-03-05T03:10:54.299Z,14.45
2023-03-05T03:13:21.347Z,13.93
2023-03-05T03:15:55.247Z,15.50
2023-03-05T03:18:41.085Z,14.07
2023-03-05T03:21:15.619Z,12.70
2023-03-05T03:23:49.262Z,13.60
2023-03-05T03:26:23.274Z,14.02
2023-03-05T03:28:50.658Z,13.38
2023-03-05T03:31:24.367Z,13.40
2023-03-05T03:34:01.286Z,13.63
2023-03-05T03:36:38.189Z,14.95
2023-03-05T03:39:05.286Z,14.38
2023-03-05T03:41:39.255Z,13.38
2023-03-05T03:44:06.196Z,14.32
2023-03-05T03:46:33.538Z,14.05
2023-03-05T03:49:10.972Z,13.68
2023-03-05T03:51:37.962Z,14.57
2023-03-05T03:54:11.218Z,13.55
2023-03-05T03:56:38.214Z,15.68
2023-03-05T03:59:12.284Z,17.80
2023-03-05T04:01:39.584Z,13.65
2023-03-05T04:04:13.344Z,14.57
2023-03-05T04:06:40.532Z,14.32
2023-03-05T04:09:17.247Z,15.25
2023-03-05T04:11:44.361Z,14.30
2023-03-05T04:14:16.916Z,14.18
2023-03-05T04:16:56.236Z,13.98
2023-03-05T04:19:33.280Z,14.45
2023-03-05T04:22:00.197Z,13.80
2023-03-05T04:24:27.514Z,14.90
2023-03-05T04:27:02.518Z,14.32
2023-03-05T04:29:36.309Z,14.38
2023-03-05T04:32:10.352Z,14.20
2023-03-05T04:34:38.071Z,12.48
2023-03-05T04:37:11.311Z,12.98
2023-03-05T04:39:38.277Z,12.90
2023-03-05T04:42:12.263Z,12.98
2023-03-05T04:44:39.334Z,12.50
2023-03-05T04:47:13.333Z,12.90
2023-03-05T04:49:40.316Z,12.30
2023-03-05T04:52:14.315Z,11.15
2023-03-05T04:54:41.416Z,13.15
2023-03-05T04:57:08.505Z,12.40
2023-03-05T04:59:43.305Z,13.00
2023-03-05T05:02:10.393Z,12.00
2023-03-05T05:04:44.305Z,13.55
2023-03-05T05:07:12.568Z,12.07
2023-03-05T05:09:46.291Z,12.15
2023-03-05T05:12:13.364Z,11.43
2023-03-05T05:14:47.297Z,11.43
2023-03-05T05:17:21.283Z,11.98
2023-03-05T05:20:02.514Z,12.27
2023-03-05T05:22:32.829Z,12.90
2023-03-05T05:25:06.332Z,13.25
2023-03-05T05:27:33.491Z,13.25
2023-03-05T05:30:07.301Z,12.82
2023-03-05T05:32:34.340Z,13.27
2023-03-05T05:38:05.316Z,14.45
2023-03-05T05:40:32.326Z,15.20
2023-03-05T05:43:05.316Z,14.05
2023-03-05T05:45:39.496Z,14.60
2023-03-05T05:48:07.002Z,14.68
2023-03-05T05:50:34.038Z,15.32
2023-03-05T05:53:07.273Z,13.82
2023-03-05T05:55:34.351Z,15.40
2023-03-05T05:58:08.329Z,14.30
2023-03-05T06:00:35.310Z,14.95
2023-03-05T06:03:08.340Z,13.50
2023-03-05T06:05:53.783Z,14.48
2023-03-05T06:08:27.448Z,14.40
2023-03-05T06:10:57.459Z,15.60
2023-03-05T06:13:31.293Z,14.55
2023-03-05T06:15:59.642Z,14.27
2023-03-05T06:18:33.360Z,14.82
2023-03-05T06:21:09.375Z,13.75
2023-03-05T06:23:42.315Z,13.23
2023-03-05T06:26:37.308Z,14.45
2023-03-05T06:29:11.410Z,14.15
2023-03-05T06:31:39.338Z,14.02
2023-03-05T06:34:28.905Z,14.07
2023-03-05T06:36:58.600Z,12.30
2023-03-05T06:42:16.034Z,14.13
2023-03-05T06:44:49.345Z,13.43
2023-03-05T06:47:22.361Z,13.27
2023-03-05T06:50:05.374Z,14.25
2023-03-05T06:52:32.416Z,12.73
2023-03-05T06:55:06.383Z,13.23
2023-03-05T06:57:40.313Z,12.77
2023-03-05T07:00:14.595Z,12.40
2023-03-05T07:02:56.735Z,12.77
2023-03-05T07:05:25.794Z,13.02
2023-03-05T07:07:59.364Z,13.10
2023-03-05T07:14:10.602Z,12.18
2023-03-05T07:16:44.373Z,14.18
2023-03-05T07:19:11.388Z,13.90
2023-03-05T07:21:45.265Z,14.48
2023-03-05T07:24:18.311Z,13.30
2023-03-05T07:26:46.893Z,14.07
2023-03-05T07:29:14.908Z,12.52
2023-03-05T07:31:48.344Z,12.57
2023-03-05T07:34:38.082Z,14.23
2023-03-05T07:37:11.321Z,14.23
2023-03-05T07:39:38.252Z,13.25
2023-03-05T07:42:11.386Z,14.15
2023-03-05T07:44:44.375Z,13.48
2023-03-05T07:47:18.313Z,12.35
2023-03-05T07:49:51.316Z,12.63
2023-03-05T07:52:24.340Z,11.52
2023-03-05T07:54:51.280Z,12.25
2023-03-05T07:57:24.329Z,11.50
2023-03-05T07:59:51.286Z,13.88
2023-03-05T08:02:24.356Z,12.10
2023-03-05T08:05:00.366Z,13.13
2023-03-05T08:07:36.450Z,11.98
2023-03-05T08:10:11.335Z,11.93
2023-03-05T08:12:38.277Z,12.63
2023-03-05T08:15:12.317Z,13.05
2023-03-05T08:17:46.372Z,11.80
2023-03-05T08:20:13.677Z,12.10
2023-03-05T08:22:40.656Z,13.57
2023-03-05T08:25:14.351Z,11.95
2023-03-05T08:28:32.415Z,11.75
2023-03-05T08:31:07.437Z,12.00
2023-03-05T08:34:47.709Z,14.98
2023-03-05T08:36:39.373Z,12.45
2023-03-05T08:39:06.495Z,11.05
2023-03-05T08:41:40.346Z,11.90
2023-03-05T08:44:07.319Z,10.93
2023-03-05T08:46:34.355Z,10.80
2023-03-05T08:49:08.504Z,11.43
2023-03-05T08:52:01.387Z,10.63
2023-03-05T08:54:31.502Z,10.65
2023-03-05T08:56:58.585Z,10.35
2023-03-05T08:59:47.458Z,10.85
2023-03-05T09:02:14.431Z,10.55
2023-03-05T09:07:52.534Z,11.23
2023-03-05T09:10:19.863Z,10.57
2023-03-05T09:12:53.444Z,10.52
2023-03-05T09:15:20.598Z,10.73
2023-03-05T09:17:57.399Z,11.07
2023-03-05T09:20:28.646Z,10.95
2023-03-05T09:25:59.854Z,11.63
2023-03-05T09:28:33.432Z,10.48
2023-03-05T09:31:06.860Z,11.30
2023-03-05T09:33:40.460Z,10.35
2023-03-05T09:36:35.304Z,10.77
2023-03-05T09:39:09.412Z,11.32
2023-03-05T09:42:04.327Z,11.68
2023-03-05T09:45:08.401Z,11.38
2023-03-05T09:48:14.971Z,10.68
2023-03-05T09:51:02.431Z,9.82
2023-03-05T09:54:45.690Z,10.88
2023-03-05T09:57:33.458Z,10.48
2023-03-05T10:00:02.734Z,11.07
2023-03-05T10:02:44.496Z,11.90
2023-03-05T10:05:27.484Z,10.68
2023-03-05T10:07:59.888Z,11.18
2023-03-05T10:10:42.517Z,11.40
2023-03-05T10:13:48.721Z,11.20
2023-03-05T10:16:29.956Z,10.90
2023-03-05T10:19:41.439Z,11.55
2023-03-05T10:22:28.413Z,10.95
2023-03-05T10:25:33.449Z,11.52
2023-03-05T10:28:50.491Z,12.20
2023-03-05T10:31:40.433Z,10.55
2023-03-05T10:34:35.449Z,10.80
2023-03-05T10:37:36.503Z,11.70
2023-03-05T10:40:35.442Z,11.75
2023-03-05T10:43:27.884Z,10.93
2023-03-05T10:46:01.480Z,10.48
2023-03-05T10:48:45.073Z,11.90
2023-03-05T10:51:45.510Z,12.60
2023-03-05T10:54:25.434Z,11.52
2023-03-05T10:57:23.491Z,11.77
2023-03-05T11:00:01.146Z,11.48
2023-03-05T11:02:34.526Z,12.65
2023-03-05T11:05:08.458Z,12.88
2023-03-05T11:07:42.488Z,12.20
2023-03-05T11:10:18.365Z,12.88
2023-03-05T11:12:52.469Z,13.02
2023-03-05T11:15:28.976Z,13.82
2023-03-05T11:18:34.567Z,12.85
2023-03-05T11:21:18.573Z,16.25
2023-03-05T11:24:12.449Z,13.30
2023-03-05T11:26:59.475Z,13.80
2023-03-05T11:29:40.494Z,13.00
2023-03-05T11:32:22.695Z,13.43
2023-03-05T11:35:03.319Z,13.70
2023-03-05T11:37:31.721Z,14.18
2023-03-05T11:40:17.665Z,13.57
2023-03-05T11:42:44.774Z,12.90
2023-03-05T11:45:17.102Z,15.65
2023-03-05T11:47:58.500Z,13.82
2023-03-05T11:50:38.573Z,13.35
2023-03-05T11:53:25.575Z,13.13
2023-03-05T11:56:00.583Z,13.70
2023-03-05T11:58:51.500Z,11.63
2023-03-05T12:01:24.382Z,12.73
2023-03-05T12:03:58.661Z,12.88
2023-03-05T12:06:58.521Z,13.35
2023-03-05T12:09:42.802Z,13.43
2023-03-05T12:12:35.526Z,13.43
2023-03-05T12:15:17.526Z,13.30
2023-03-05T12:18:34.636Z,14.18
2023-03-05T12:21:23.515Z,13.25
2023-03-05T12:24:02.543Z,13.80
2023-03-05T12:27:10.581Z,13.55
2023-03-05T12:29:52.309Z,11.60
2023-03-05T12:32:31.680Z,11.50
2023-03-05T12:35:02.448Z,11.45
2023-03-05T12:37:35.552Z,13.52
2023-03-05T12:40:05.849Z,13.25
2023-03-05T12:42:32.829Z,12.25
2023-03-05T12:45:18.583Z,11.90
2023-03-05T12:47:57.836Z,11.90
2023-03-05T12:50:37.520Z,12.55
2023-03-05T12:53:10.552Z,12.20
2023-03-05T12:55:43.231Z,10.82
2023-03-05T12:58:49.592Z,10.68
2023-03-05T13:01:40.539Z,10.73
2023-03-05T13:04:14.956Z,11.30
2023-03-05T13:06:48.536Z,13.55
2023-03-05T13:09:24.849Z,11.45
2023-03-05T13:11:59.691Z,11.02
2023-03-05T13:14:37.790Z,11.25
2023-03-05T13:17:36.575Z,11.13
2023-03-05T13:20:36.593Z,12.02
2023-03-05T13:23:24.006Z,12.32
2023-03-05T13:26:23.503Z,11.40
2023-03-05T13:29:20.903Z,11.73
2023-03-05T13:32:25.654Z,12.40
2023-03-05T13:34:54.138Z,11.82
2023-03-05T13:37:44.597Z,11.20
2023-03-05T13:40:25.415Z,13.45
2023-03-05T13:42:59.566Z,12.63
2023-03-05T13:45:31.300Z,11.73
2023-03-05T13:48:10.552Z,12.63
2023-03-05T13:50:39.585Z,12.77
2023-03-05T13:53:23.601Z,14.15
2023-03-05T13:55:53.017Z,13.75
2023-03-05T13:58:55.575Z,12.55
2023-03-05T14:01:42.595Z,13.73
2023-03-05T14:04:28.659Z,11.60
2023-03-05T14:07:27.549Z,12.40
2023-03-05T14:09:54.688Z,11.63
2023-03-05T14:12:42.574Z,11.82
2023-03-05T14:15:29.960Z,10.80
2023-03-05T14:18:19.025Z,11.32
2023-03-05T14:20:59.579Z,9.40
2023-03-05T14:23:43.574Z,10.38
2023-03-05T14:26:31.054Z,10.60
2023-03-05T14:29:22.575Z,12.07
2023-03-05T14:31:54.083Z,11.88
2023-03-05T14:34:42.568Z,10.27
2023-03-05T14:37:41.709Z,10.27
2023-03-05T14:40:14.647Z,10.35
2023-03-05T14:42:41.490Z,9.75
2023-03-05T14:45:21.619Z,10.40
2023-03-05T14:47:50.185Z,8.93
2023-03-05T14:50:31.627Z,8.68
2023-03-05T14:53:01.648Z,8.95
2023-03-05T14:55:37.639Z,9.02
2023-03-05T14:58:15.392Z,9.18
2023-03-05T15:00:51.120Z,8.93
2023-03-05T15:03:18.560Z,9.00
2023-03-05T15:05:53.601Z,6.95
2023-03-05T15:08:29.319Z,6.53
2023-03-05T15:11:02.669Z,7.50
2023-03-05T15:13:29.633Z,6.10
2023-03-05T15:15:56.638Z,6.38
2023-03-05T15:18:30.597Z,5.05
2023-03-05T15:21:03.658Z,5.68
2023-03-05T15:23:30.666Z,5.82
2023-03-05T15:26:04.620Z,6.50
2023-03-05T15:28:33.712Z,6.20
2023-03-05T15:31:07.681Z,5.68
2023-03-05T15:33:34.740Z,5.50
2023-03-05T15:36:08.654Z,5.50
2023-03-05T15:38:35.549Z,7.07
2023-03-05T15:41:08.639Z,6.53
2023-03-05T15:43:36.882Z,5.43
2023-03-05T15:46:06.405Z,5.25
2023-03-05T15:48:39.636Z,5.72
2023-03-05T15:51:07.486Z,5.38
2023-03-05T15:53:40.662Z,5.65
2023-03-05T15:56:09.184Z,5.45
2023-03-05T15:58:42.672Z,5.25
2023-03-05T16:01:11.614Z,4.72
2023-03-05T16:03:45.670Z,4.53
2023-03-05T16:08:46.463Z,5.22
2023-03-05T16:11:19.683Z,5.05
2023-03-05T16:13:53.686Z,5.22
2023-03-05T16:16:20.626Z,4.72
2023-03-05T16:18:47.562Z,4.90
2023-03-05T16:21:20.698Z,5.45
2023-03-05T16:23:47.692Z,4.75
2023-03-05T16:26:20.686Z,4.93
2023-03-05T16:28:47.635Z,5.35
2023-03-05T16:31:20.693Z,5.25
2023-03-05T16:33:47.637Z,5.22
2023-03-05T16:36:27.649Z,5.22
2023-03-05T16:38:56.524Z,4.55
2023-03-05T16:41:24.365Z,5.15
2023-03-05T16:44:00.680Z,5.32
2023-03-05T16:46:29.048Z,5.18
2023-03-05T16:49:02.684Z,5.60
2023-03-05T16:51:36.704Z,4.30
2023-03-05T16:54:10.675Z,4.70
2023-03-05T16:56:37.788Z,4.93
2023-03-05T16:59:11.730Z,4.57
2023-03-05T17:01:38.716Z,4.78
2023-03-05T17:04:05.703Z,5.45
2023-03-05T17:06:39.673Z,5.72
2023-03-05T17:09:13.669Z,6.32
2023-03-05T17:11:40.626Z,8.45
2023-03-05T17:14:13.795Z,9.80
2023-03-05T17:16:40.775Z,9.60
2023-03-05T17:19:14.711Z,7.80
2023-03-05T17:21:47.698Z,6.63
2023-03-05T17:24:14.620Z,6.70
2023-03-05T17:26:47.723Z,6.10
2023-03-05T17:29:14.640Z,7.10
2023-03-05T17:31:41.607Z,8.30
2023-03-05T17:34:14.747Z,8.75
2023-03-05T17:36:47.715Z,9.23
2023-03-05T17:39:20.746Z,10.68
2023-03-05T17:41:47.738Z,9.60
2023-03-05T17:44:20.668Z,9.05
2023-03-05T17:46:53.714Z,9.63
2023-03-05T17:49:20.593Z,8.40
2023-03-05T17:51:53.724Z,8.48
2023-03-05T17:54:26.755Z,17.77
2023-03-05T17:56:57.053Z,49.15
2023-03-05T17:59:24.573Z,36.92
2023-03-05T18:01:57.717Z,22.15
2023-03-05T18:04:30.776Z,17.35
2023-03-05T18:07:04.773Z,14.07
2023-03-05T18:09:31.897Z,12.23
2023-03-05T18:12:05.751Z,12.55
2023-03-05T18:14:32.780Z,12.77
2023-03-05T18:17:05.711Z,10.95
2023-03-05T18:19:32.643Z,13.10
2023-03-05T18:22:05.732Z,12.95
2023-03-05T18:24:39.717Z,14.32
2023-03-05T18:27:07.003Z,14.73
2023-03-05T18:29:40.744Z,13.07
2023-03-05T18:32:15.865Z,12.45
2023-03-05T18:34:50.725Z,10.10
2023-03-05T18:37:17.779Z,11.77
2023-03-05T18:39:57.811Z,9.98
2023-03-05T18:42:24.800Z,15.00
2023-03-05T18:44:51.804Z,13.60
2023-03-05T18:47:25.702Z,20.23
2023-03-05T18:49:58.764Z,17.80
2023-03-05T18:52:25.682Z,15.57
2023-03-05T18:54:58.709Z,12.27
2023-03-05T18:57:32.768Z,10.75
2023-03-05T18:59:59.699Z,9.52
2023-03-05T19:02:32.713Z,8.00
2023-03-05T19:04:59.635Z,8.68
2023-03-05T19:07:33.812Z,7.28
2023-03-05T19:10:01.160Z,9.38
2023-03-05T19:12:35.782Z,8.23
2023-03-05T19:15:09.735Z,7.63
2023-03-05T19:17:42.790Z,7.63
2023-03-05T19:20:18.746Z,7.68
2023-03-05T19:22:51.794Z,7.82
2023-03-05T19:25:18.834Z,8.15
2023-03-05T19:27:51.841Z,10.18
2023-03-05T19:30:18.977Z,11.07
2023-03-05T19:32:52.782Z,10.60
2023-03-05T19:35:19.895Z,10.43
2023-03-05T19:37:46.849Z,8.60
2023-03-05T19:40:20.775Z,9.10
2023-03-05T19:42:47.726Z,9.02
2023-03-05T19:45:21.757Z,9.18
2023-03-05T19:47:48.754Z,8.32
2023-03-05T19:50:22.793Z,8.55
2023-03-05T19:52:49.822Z,9.73
2023-03-05T19:55:23.792Z,9.38
2023-03-05T19:57:50.701Z,10.55
2023-03-05T20:00:24.787Z,10.45
2023-03-05T20:02:51.742Z,10.05
2023-03-05T20:05:25.757Z,10.05
2023-03-05T20:07:53.342Z,10.93
2023-03-05T20:10:26.758Z,9.95
2023-03-05T20:12:53.694Z,9.63
2023-03-05T20:15:27.796Z,8.85
2023-03-05T20:17:56.756Z,8.63
2023-03-05T20:20:30.841Z,8.70
2023-03-05T20:22:58.098Z,9.05
2023-03-05T20:25:31.803Z,8.73
2023-03-05T20:27:58.811Z,8.65
2023-03-05T20:30:32.787Z,8.75
2023-03-05T20:32:59.818Z,9.13
2023-03-05T20:35:26.820Z,9.18
2023-03-05T20:38:27.755Z,9.57
2023-03-05T20:40:56.212Z,9.10
2023-03-05T20:43:29.835Z,13.27
2023-03-05T20:45:57.026Z,20.90
2023-03-05T20:48:31.846Z,22.48
2023-03-05T20:51:05.847Z,25.08
2023-03-05T20:53:32.806Z,28.05
2023-03-05T20:55:59.831Z,27.58
2023-03-05T20:58:33.813Z,26.50
2023-03-05T21:01:00.814Z,29.00
2023-03-05T21:03:34.826Z,32.05
2023-03-05T21:06:03.081Z,41.10
2023-03-05T21:08:36.826Z,53.40
2023-03-05T21:11:10.058Z,35.10
2023-03-05T21:13:43.855Z,13.57
2023-03-05T21:16:17.536Z,10.70
2023-03-05T21:18:50.874Z,11.43
2023-03-05T21:21:18.327Z,13.95
2023-03-05T21:23:51.817Z,15.55
2023-03-05T21:26:18.829Z,15.77
2023-03-05T21:28:51.870Z,15.55
2023-03-05T21:31:21.060Z,18.77
2023-03-05T21:33:54.875Z,23.63
2023-03-05T21:36:21.873Z,19.38
2023-03-05T21:38:55.847Z,15.25
2023-03-05T21:44:43.819Z,15.55
2023-03-05T21:47:10.854Z,17.27
2023-03-05T21:49:43.869Z,15.60
2023-03-05T21:52:17.880Z,16.15
2023-03-05T21:54:50.838Z,10.63
2023-03-05T21:57:23.817Z,10.88
2023-03-05T21:59:56.911Z,12.05
2023-03-05T22:02:30.893Z,14.52
2023-03-05T22:04:58.715Z,15.75
2023-03-05T22:07:31.894Z,16.65
2023-03-05T22:09:59.132Z,16.65
2023-03-05T22:13:23.830Z,19.27
2023-03-05T22:15:54.749Z,16.50
2023-03-05T22:18:30.818Z,17.08
2023-03-05T22:21:04.852Z,17.13
2023-03-05T22:23:32.433Z,18.65
2023-03-05T22:26:11.855Z,19.33
2023-03-05T22:28:38.849Z,17.80
2023-03-05T22:31:12.907Z,17.27
2023-03-05T22:33:39.991Z,16.58
2023-03-05T22:36:11.531Z,16.27
2023-03-05T22:38:44.854Z,16.55
2023-03-05T22:41:22.856Z,16.42
2023-03-05T22:44:08.324Z,14.95
2023-03-05T22:46:41.853Z,15.40
2023-03-05T22:49:08.812Z,15.98
2023-03-05T22:51:41.906Z,16.52
2023-03-05T22:54:08.855Z,15.90
2023-03-05T22:56:42.822Z,17.30
2023-03-05T22:59:09.724Z,18.13
2023-03-05T23:01:42.860Z,16.70
2023-03-05T23:04:48.240Z,17.25
2023-03-05T23:07:26.886Z,18.25
2023-03-05T23:10:01.723Z,18.83
2023-03-05T23:12:36.852Z,19.27
2023-03-05T23:15:07.363Z,16.42
2023-03-05T23:17:40.910Z,17.50
2023-03-05T23:20:09.124Z,15.13
2023-03-05T23:22:43.840Z,14.30
2023-03-05T23:25:12.157Z,14.52
2023-03-05T23:27:45.864Z,15.18
2023-03-05T23:30:19.675Z,15.68
2023-03-05T23:33:12.918Z,18.15
2023-03-05T23:35:59.516Z,17.65
2023-03-05T23:38:34.873Z,18.17
2023-03-05T23:41:01.808Z,18.75
2023-03-05T23:43:29.087Z,17.30
2023-03-05T23:46:02.968Z,16.70
2023-03-05T23:48:30.307Z,16.25
2023-03-05T23:51:03.869Z,15.65
2023-03-05T23:53:30.834Z,15.90
2023-03-05T23:56:03.887Z,16.33
2023-03-05T23:58:30.811Z,15.75
